sensor_id;sensor_type;location;lat;lon;timestamp;P1;durP1;ratioP1;P2;durP2;ratioP2
13816;SDS011;6979;52.116;5.286;2023-12-14T00:00:27;12.43;;;11.13;;
13816;SDS011;6979;52.116;5.286;2023-12-14T00:02:54;12.67;;;11.37;;
13816;SDS011;6979;52.116;5.286;2023-12-14T00:05:21;13.30;;;12.03;;
13816;SDS011;6979;52.116;5.286;2023-12-14T00:07:50;14.10;;;12.60;;
13816;SDS011;6979;52.116;5.286;2023-12-14T00:10:17;14.90;;;13.50;;
13816;SDS011;6979;52.116;5.286;2023-12-14T00:12:45;12.80;;;11.60;;
13816;SDS011;6979;52.116;5.286;2023-12-14T00:15:14;12.10;;;10.90;;
13816;SDS011;6979;52.116;5.286;2023-12-14T00:17:42;12.00;;;10.80;;
13816;SDS011;6979;52.116;5.286;2023-12-14T00:20:10;12.77;;;11.57;;
13816;SDS011;6979;52.116;5.286;2023-12-14T00:22:38;14.17;;;12.83;;
13816;SDS011;6979;52.116;5.286;2023-12-14T00:25:06;14.43;;;13.13;;
13816;SDS011;6979;52.116;5.286;2023-12-14T00:27:33;11.90;;;10.70;;
13816;SDS011;6979;52.116;5.286;2023-12-14T00:30:01;11.63;;;10.53;;
13816;SDS011;6979;52.116;5.286;2023-12-14T00:32:29;12.10;;;10.90;;
13816;SDS011;6979;52.116;5.286;2023-12-14T00:34:56;11.33;;;10.13;;
13816;SDS011;6979;52.116;5.286;2023-12-14T00:37:22;12.07;;;10.87;;
13816;SDS011;6979;52.116;5.286;2023-12-14T00:39:50;12.53;;;11.33;;
13816;SDS011;6979;52.116;5.286;2023-12-14T00:42:17;12.53;;;11.23;;
13816;SDS011;6979;52.116;5.286;2023-12-14T00:44:43;12.10;;;10.83;;
13816;SDS011;6979;52.116;5.286;2023-12-14T00:47:12;12.63;;;11.47;;
13816;SDS011;6979;52.116;5.286;2023-12-14T00:49:39;13.17;;;11.97;;
13816;SDS011;6979;52.116;5.286;2023-12-14T00:52:06;12.73;;;11.57;;
13816;SDS011;6979;52.116;5.286;2023-12-14T00:54:33;11.80;;;10.60;;
13816;SDS011;6979;52.116;5.286;2023-12-14T00:56:59;12.47;;;11.37;;
13816;SDS011;6979;52.116;5.286;2023-12-14T00:59:25;11.37;;;10.27;;
13816;SDS011;6979;52.116;5.286;2023-12-14T01:01:52;13.00;;;11.33;;
13816;SDS011;6979;52.116;5.286;2023-12-14T01:04:20;11.93;;;10.83;;
13816;SDS011;6979;52.116;5.286;2023-12-14T01:06:50;12.03;;;10.83;;
13816;SDS011;6979;52.116;5.286;2023-12-14T01:09:17;13.37;;;12.17;;
13816;SDS011;6979;52.116;5.286;2023-12-14T01:11:44;12.33;;;11.13;;
13816;SDS011;6979;52.116;5.286;2023-12-14T01:14:14;13.60;;;12.30;;
13816;SDS011;6979;52.116;5.286;2023-12-14T01:16:41;13.13;;;11.93;;
13816;SDS011;6979;52.116;5.286;2023-12-14T01:19:08;11.77;;;10.67;;
13816;SDS011;6979;52.116;5.286;2023-12-14T01:21:36;12.90;;;11.60;;
13816;SDS011;6979;52.116;5.286;2023-12-14T01:24:05;14.80;;;13.33;;
13816;SDS011;6979;52.116;5.286;2023-12-14T01:26:32;11.67;;;10.57;;
13816;SDS011;6979;52.116;5.286;2023-12-14T01:28:59;12.73;;;11.53;;
13816;SDS011;6979;52.116;5.286;2023-12-14T01:31:26;12.30;;;11.20;;
13816;SDS011;6979;52.116;5.286;2023-12-14T01:33:53;12.23;;;11.10;;
13816;SDS011;6979;52.116;5.286;2023-12-14T01:36:20;13.30;;;11.90;;
13816;SDS011;6979;52.116;5.286;2023-12-14T01:38:49;14.07;;;12.80;;
13816;SDS011;6979;52.116;5.286;2023-12-14T01:41:16;13.17;;;11.97;;
13816;SDS011;6979;52.116;5.286;2023-12-14T01:43:43;14.03;;;12.73;;
13816;SDS011;6979;52.116;5.286;2023-12-14T01:46:13;14.33;;;13.00;;
13816;SDS011;6979;52.116;5.286;2023-12-14T01:48:41;12.70;;;11.10;;
13816;SDS011;6979;52.116;5.286;2023-12-14T01:51:08;12.13;;;11.03;;
13816;SDS011;6979;52.116;5.286;2023-12-14T01:53:35;12.60;;;11.40;;
13816;SDS011;6979;52.116;5.286;2023-12-14T01:56:05;12.10;;;10.40;;
13816;SDS011;6979;52.116;5.286;2023-12-14T01:58:35;13.40;;;12.17;;
13816;SDS011;6979;52.116;5.286;2023-12-14T02:01:10;12.87;;;11.77;;
13816;SDS011;6979;52.116;5.286;2023-12-14T02:03:45;13.83;;;12.63;;
13816;SDS011;6979;52.116;5.286;2023-12-14T02:06:12;13.10;;;11.90;;
13816;SDS011;6979;52.116;5.286;2023-12-14T02:08:39;15.63;;;11.50;;
13816;SDS011;6979;52.116;5.286;2023-12-14T02:11:07;13.83;;;12.57;;
13816;SDS011;6979;52.116;5.286;2023-12-14T02:13:40;12.70;;;11.50;;
13816;SDS011;6979;52.116;5.286;2023-12-14T02:16:07;13.73;;;12.53;;
13816;SDS011;6979;52.116;5.286;2023-12-14T02:18:34;11.80;;;10.70;;
13816;SDS011;6979;52.116;5.286;2023-12-14T02:21:01;12.87;;;11.47;;
13816;SDS011;6979;52.116;5.286;2023-12-14T02:23:29;12.43;;;11.23;;
13816;SDS011;6979;52.116;5.286;2023-12-14T02:25:56;12.90;;;11.70;;
13816;SDS011;6979;52.116;5.286;2023-12-14T02:28:25;14.73;;;13.33;;
13816;SDS011;6979;52.116;5.286;2023-12-14T02:30:52;12.93;;;11.17;;
13816;SDS011;6979;52.116;5.286;2023-12-14T02:33:19;11.70;;;10.60;;
13816;SDS011;6979;52.116;5.286;2023-12-14T02:35:46;11.67;;;10.50;;
13816;SDS011;6979;52.116;5.286;2023-12-14T02:38:13;12.20;;;11.00;;
13816;SDS011;6979;52.116;5.286;2023-12-14T02:40:41;11.50;;;10.40;;
13816;SDS011;6979;52.116;5.286;2023-12-14T02:43:08;12.00;;;10.90;;
13816;SDS011;6979;52.116;5.286;2023-12-14T02:45:35;11.53;;;10.43;;
13816;SDS011;6979;52.116;5.286;2023-12-14T02:48:08;12.57;;;11.33;;
13816;SDS011;6979;52.116;5.286;2023-12-14T02:50:35;12.97;;;11.77;;
13816;SDS011;6979;52.116;5.286;2023-12-14T02:53:02;12.47;;;10.90;;
13816;SDS011;6979;52.116;5.286;2023-12-14T02:55:29;12.27;;;11.07;;
13816;SDS011;6979;52.116;5.286;2023-12-14T02:57:58;12.50;;;11.33;;
13816;SDS011;6979;52.116;5.286;2023-12-14T03:00:25;12.60;;;11.40;;
13816;SDS011;6979;52.116;5.286;2023-12-14T03:02:52;13.60;;;12.20;;
13816;SDS011;6979;52.116;5.286;2023-12-14T03:05:19;13.47;;;12.17;;
13816;SDS011;6979;52.116;5.286;2023-12-14T03:07:45;14.43;;;12.93;;
13816;SDS011;6979;52.116;5.286;2023-12-14T03:10:12;13.53;;;12.27;;
13816;SDS011;6979;52.116;5.286;2023-12-14T03:12:39;14.27;;;12.73;;
13816;SDS011;6979;52.116;5.286;2023-12-14T03:15:08;12.23;;;10.97;;
13816;SDS011;6979;52.116;5.286;2023-12-14T03:17:35;15.17;;;12.70;;
13816;SDS011;6979;52.116;5.286;2023-12-14T03:20:02;13.53;;;12.20;;
13816;SDS011;6979;52.116;5.286;2023-12-14T03:22:31;13.33;;;11.93;;
13816;SDS011;6979;52.116;5.286;2023-12-14T03:24:58;14.60;;;12.40;;
13816;SDS011;6979;52.116;5.286;2023-12-14T03:27:25;13.17;;;11.77;;
13816;SDS011;6979;52.116;5.286;2023-12-14T03:29:52;14.17;;;12.77;;
13816;SDS011;6979;52.116;5.286;2023-12-14T03:32:20;14.87;;;12.27;;
13816;SDS011;6979;52.116;5.286;2023-12-14T03:34:49;13.97;;;12.57;;
13816;SDS011;6979;52.116;5.286;2023-12-14T03:37:19;15.90;;;13.83;;
13816;SDS011;6979;52.116;5.286;2023-12-14T03:39:49;14.67;;;11.30;;
13816;SDS011;6979;52.116;5.286;2023-12-14T03:42:16;18.83;;;14.13;;
13816;SDS011;6979;52.116;5.286;2023-12-14T03:44:43;14.77;;;13.27;;
13816;SDS011;6979;52.116;5.286;2023-12-14T03:47:10;17.57;;;13.20;;
13816;SDS011;6979;52.116;5.286;2023-12-14T03:49:38;15.90;;;13.27;;
13816;SDS011;6979;52.116;5.286;2023-12-14T03:52:05;14.17;;;12.67;;
13816;SDS011;6979;52.116;5.286;2023-12-14T03:54:32;13.93;;;12.50;;
13816;SDS011;6979;52.116;5.286;2023-12-14T03:56:58;16.07;;;11.80;;
13816;SDS011;6979;52.116;5.286;2023-12-14T03:59:25;14.67;;;13.00;;
13816;SDS011;6979;52.116;5.286;2023-12-14T04:01:58;13.57;;;12.13;;
13816;SDS011;6979;52.116;5.286;2023-12-14T04:04:28;12.80;;;11.40;;
13816;SDS011;6979;52.116;5.286;2023-12-14T04:07:02;13.73;;;11.60;;
13816;SDS011;6979;52.116;5.286;2023-12-14T04:09:31;12.80;;;11.50;;
13816;SDS011;6979;52.116;5.286;2023-12-14T04:11:58;12.53;;;10.70;;
13816;SDS011;6979;52.116;5.286;2023-12-14T04:14:25;12.50;;;10.43;;
13816;SDS011;6979;52.116;5.286;2023-12-14T04:16:51;11.03;;;9.93;;
13816;SDS011;6979;52.116;5.286;2023-12-14T04:19:18;12.10;;;10.83;;
13816;SDS011;6979;52.116;5.286;2023-12-14T04:21:45;11.03;;;9.73;;
13816;SDS011;6979;52.116;5.286;2023-12-14T04:24:16;11.67;;;9.77;;
13816;SDS011;6979;52.116;5.286;2023-12-14T04:26:43;11.27;;;9.83;;
13816;SDS011;6979;52.116;5.286;2023-12-14T04:29:10;9.83;;;8.87;;
13816;SDS011;6979;52.116;5.286;2023-12-14T04:31:37;11.43;;;10.33;;
13816;SDS011;6979;52.116;5.286;2023-12-14T04:34:03;12.30;;;11.20;;
13816;SDS011;6979;52.116;5.286;2023-12-14T04:36:30;11.13;;;9.93;;
13816;SDS011;6979;52.116;5.286;2023-12-14T04:38:57;11.93;;;8.80;;
13816;SDS011;6979;52.116;5.286;2023-12-14T04:41:28;9.47;;;8.47;;
13816;SDS011;6979;52.116;5.286;2023-12-14T04:43:55;9.67;;;8.67;;
13816;SDS011;6979;52.116;5.286;2023-12-14T04:46:22;9.50;;;8.50;;
13816;SDS011;6979;52.116;5.286;2023-12-14T04:48:48;9.60;;;8.53;;
13816;SDS011;6979;52.116;5.286;2023-12-14T04:51:15;10.50;;;8.77;;
13816;SDS011;6979;52.116;5.286;2023-12-14T04:53:42;11.03;;;9.57;;
13816;SDS011;6979;52.116;5.286;2023-12-14T04:56:09;9.63;;;8.13;;
13816;SDS011;6979;52.116;5.286;2023-12-14T04:58:38;8.97;;;8.10;;
13816;SDS011;6979;52.116;5.286;2023-12-14T05:01:11;9.77;;;8.13;;
13816;SDS011;6979;52.116;5.286;2023-12-14T05:03:40;11.17;;;10.07;;
13816;SDS011;6979;52.116;5.286;2023-12-14T05:06:07;11.37;;;8.47;;
13816;SDS011;6979;52.116;5.286;2023-12-14T05:08:34;9.17;;;8.27;;
13816;SDS011;6979;52.116;5.286;2023-12-14T05:11:01;9.20;;;8.30;;
13816;SDS011;6979;52.116;5.286;2023-12-14T05:13:28;10.23;;;8.57;;
13816;SDS011;6979;52.116;5.286;2023-12-14T05:15:57;10.47;;;9.37;;
13816;SDS011;6979;52.116;5.286;2023-12-14T05:18:24;10.23;;;8.57;;
13816;SDS011;6979;52.116;5.286;2023-12-14T05:20:50;9.20;;;8.13;;
13816;SDS011;6979;52.116;5.286;2023-12-14T05:23:17;9.17;;;7.43;;
13816;SDS011;6979;52.116;5.286;2023-12-14T05:25:44;8.43;;;7.47;;
13816;SDS011;6979;52.116;5.286;2023-12-14T05:28:11;9.97;;;8.57;;
13816;SDS011;6979;52.116;5.286;2023-12-14T05:30:38;8.50;;;7.40;;
13816;SDS011;6979;52.116;5.286;2023-12-14T05:33:06;8.37;;;7.40;;
13816;SDS011;6979;52.116;5.286;2023-12-14T05:35:33;8.10;;;7.40;;
13816;SDS011;6979;52.116;5.286;2023-12-14T05:38:00;8.47;;;7.67;;
13816;SDS011;6979;52.116;5.286;2023-12-14T05:40:27;8.67;;;6.90;;
13816;SDS011;6979;52.116;5.286;2023-12-14T05:42:53;7.97;;;7.17;;
13816;SDS011;6979;52.116;5.286;2023-12-14T05:45:21;8.63;;;7.83;;
13816;SDS011;6979;52.116;5.286;2023-12-14T05:47:48;7.93;;;7.13;;
13816;SDS011;6979;52.116;5.286;2023-12-14T05:50:17;8.00;;;7.30;;
13816;SDS011;6979;52.116;5.286;2023-12-14T05:52:44;7.73;;;6.93;;
13816;SDS011;6979;52.116;5.286;2023-12-14T05:55:11;8.70;;;7.57;;
13816;SDS011;6979;52.116;5.286;2023-12-14T05:57:38;7.93;;;6.73;;
13816;SDS011;6979;52.116;5.286;2023-12-14T06:00:07;7.40;;;6.70;;
13816;SDS011;6979;52.116;5.286;2023-12-14T06:02:34;7.53;;;6.70;;
13816;SDS011;6979;52.116;5.286;2023-12-14T06:05:03;9.40;;;6.97;;
13816;SDS011;6979;52.116;5.286;2023-12-14T06:07:34;9.47;;;8.57;;
13816;SDS011;6979;52.116;5.286;2023-12-14T06:10:02;7.83;;;7.03;;
13816;SDS011;6979;52.116;5.286;2023-12-14T06:12:30;7.00;;;6.30;;
13816;SDS011;6979;52.116;5.286;2023-12-14T06:14:56;7.50;;;6.57;;
13816;SDS011;6979;52.116;5.286;2023-12-14T06:17:23;8.90;;;7.50;;
13816;SDS011;6979;52.116;5.286;2023-12-14T06:19:50;8.47;;;7.10;;
13816;SDS011;6979;52.116;5.286;2023-12-14T06:22:17;6.93;;;6.27;;
13816;SDS011;6979;52.116;5.286;2023-12-14T06:24:45;8.00;;;7.30;;
13816;SDS011;6979;52.116;5.286;2023-12-14T06:27:12;8.33;;;7.30;;
13816;SDS011;6979;52.116;5.286;2023-12-14T06:29:39;7.97;;;6.57;;
13816;SDS011;6979;52.116;5.286;2023-12-14T06:32:06;7.33;;;6.63;;
13816;SDS011;6979;52.116;5.286;2023-12-14T06:34:33;8.27;;;7.10;;
13816;SDS011;6979;52.116;5.286;2023-12-14T06:36:59;8.07;;;7.23;;
13816;SDS011;6979;52.116;5.286;2023-12-14T06:39:28;9.77;;;7.47;;
13816;SDS011;6979;52.116;5.286;2023-12-14T06:41:57;7.17;;;6.47;;
13816;SDS011;6979;52.116;5.286;2023-12-14T06:44:24;8.27;;;6.87;;
13816;SDS011;6979;52.116;5.286;2023-12-14T06:46:51;7.60;;;6.77;;
13816;SDS011;6979;52.116;5.286;2023-12-14T06:49:18;7.40;;;6.53;;
13816;SDS011;6979;52.116;5.286;2023-12-14T06:51:45;8.17;;;7.37;;
13816;SDS011;6979;52.116;5.286;2023-12-14T06:54:12;8.17;;;7.37;;
13816;SDS011;6979;52.116;5.286;2023-12-14T06:56:38;8.93;;;7.83;;
13816;SDS011;6979;52.116;5.286;2023-12-14T06:59:07;7.90;;;7.10;;
13816;SDS011;6979;52.116;5.286;2023-12-14T07:01:34;9.07;;;8.27;;
13816;SDS011;6979;52.116;5.286;2023-12-14T07:04:00;8.63;;;7.73;;
13816;SDS011;6979;52.116;5.286;2023-12-14T07:06:29;7.73;;;7.03;;
13816;SDS011;6979;52.116;5.286;2023-12-14T07:08:55;8.40;;;7.60;;
13816;SDS011;6979;52.116;5.286;2023-12-14T07:11:22;9.93;;;9.03;;
13816;SDS011;6979;52.116;5.286;2023-12-14T07:13:49;7.90;;;7.10;;
13816;SDS011;6979;52.116;5.286;2023-12-14T07:16:21;8.00;;;6.83;;
13816;SDS011;6979;52.116;5.286;2023-12-14T07:18:48;8.97;;;8.07;;
13816;SDS011;6979;52.116;5.286;2023-12-14T07:21:15;9.77;;;8.77;;
13816;SDS011;6979;52.116;5.286;2023-12-14T07:23:42;8.83;;;7.93;;
13816;SDS011;6979;52.116;5.286;2023-12-14T07:26:09;9.93;;;9.13;;
13816;SDS011;6979;52.116;5.286;2023-12-14T07:28:35;9.07;;;8.17;;
13816;SDS011;6979;52.116;5.286;2023-12-14T07:31:02;9.53;;;8.03;;
13816;SDS011;6979;52.116;5.286;2023-12-14T07:33:37;8.87;;;8.07;;
13816;SDS011;6979;52.116;5.286;2023-12-14T07:36:07;9.63;;;7.70;;
13816;SDS011;6979;52.116;5.286;2023-12-14T07:38:34;8.97;;;8.17;;
13816;SDS011;6979;52.116;5.286;2023-12-14T07:41:01;9.07;;;8.17;;
13816;SDS011;6979;52.116;5.286;2023-12-14T07:43:30;8.63;;;7.73;;
13816;SDS011;6979;52.116;5.286;2023-12-14T07:45:57;8.63;;;7.93;;
13816;SDS011;6979;52.116;5.286;2023-12-14T07:48:24;10.20;;;9.03;;
13816;SDS011;6979;52.116;5.286;2023-12-14T07:50:52;7.93;;;7.20;;
13816;SDS011;6979;52.116;5.286;2023-12-14T07:53:19;9.40;;;8.43;;
13816;SDS011;6979;52.116;5.286;2023-12-14T07:55:46;9.03;;;8.17;;
13816;SDS011;6979;52.116;5.286;2023-12-14T07:58:13;8.90;;;8.00;;
13816;SDS011;6979;52.116;5.286;2023-12-14T08:00:40;10.30;;;9.23;;
13816;SDS011;6979;52.116;5.286;2023-12-14T08:03:07;9.17;;;8.30;;
13816;SDS011;6979;52.116;5.286;2023-12-14T08:05:43;10.63;;;9.57;;
13816;SDS011;6979;52.116;5.286;2023-12-14T08:08:11;9.57;;;8.67;;
13816;SDS011;6979;52.116;5.286;2023-12-14T08:10:38;9.63;;;8.40;;
13816;SDS011;6979;52.116;5.286;2023-12-14T08:13:05;8.57;;;7.67;;
13816;SDS011;6979;52.116;5.286;2023-12-14T08:15:34;9.07;;;8.17;;
13816;SDS011;6979;52.116;5.286;2023-12-14T08:18:01;10.53;;;9.53;;
13816;SDS011;6979;52.116;5.286;2023-12-14T08:20:29;8.80;;;8.00;;
13816;SDS011;6979;52.116;5.286;2023-12-14T08:22:56;9.53;;;8.53;;
13816;SDS011;6979;52.116;5.286;2023-12-14T08:25:24;10.27;;;9.10;;
13816;SDS011;6979;52.116;5.286;2023-12-14T08:27:51;10.53;;;9.53;;
13816;SDS011;6979;52.116;5.286;2023-12-14T08:30:18;9.83;;;8.93;;
13816;SDS011;6979;52.116;5.286;2023-12-14T08:32:46;9.10;;;8.20;;
13816;SDS011;6979;52.116;5.286;2023-12-14T08:35:12;10.07;;;8.97;;
13816;SDS011;6979;52.116;5.286;2023-12-14T08:37:39;9.80;;;8.80;;
13816;SDS011;6979;52.116;5.286;2023-12-14T08:40:07;11.33;;;9.77;;
13816;SDS011;6979;52.116;5.286;2023-12-14T08:42:35;9.17;;;8.30;;
13816;SDS011;6979;52.116;5.286;2023-12-14T08:45:03;9.20;;;8.30;;
13816;SDS011;6979;52.116;5.286;2023-12-14T08:47:30;9.63;;;8.63;;
13816;SDS011;6979;52.116;5.286;2023-12-14T08:49:57;9.67;;;8.67;;
13816;SDS011;6979;52.116;5.286;2023-12-14T08:52:24;9.50;;;8.60;;
13816;SDS011;6979;52.116;5.286;2023-12-14T08:54:50;9.23;;;8.37;;
13816;SDS011;6979;52.116;5.286;2023-12-14T08:57:17;8.77;;;7.97;;
13816;SDS011;6979;52.116;5.286;2023-12-14T08:59:45;8.83;;;7.97;;
13816;SDS011;6979;52.116;5.286;2023-12-14T09:02:12;8.87;;;8.07;;
13816;SDS011;6979;52.116;5.286;2023-12-14T09:04:41;8.43;;;7.63;;
13816;SDS011;6979;52.116;5.286;2023-12-14T09:07:08;8.03;;;7.23;;
13816;SDS011;6979;52.116;5.286;2023-12-14T09:09:35;8.60;;;7.80;;
13816;SDS011;6979;52.116;5.286;2023-12-14T09:12:02;8.07;;;7.27;;
13816;SDS011;6979;52.116;5.286;2023-12-14T09:14:29;8.70;;;7.90;;
13816;SDS011;6979;52.116;5.286;2023-12-14T09:16:58;8.43;;;7.63;;
13816;SDS011;6979;52.116;5.286;2023-12-14T09:19:24;9.27;;;8.37;;
13816;SDS011;6979;52.116;5.286;2023-12-14T09:21:51;8.53;;;7.63;;
13816;SDS011;6979;52.116;5.286;2023-12-14T09:24:18;10.07;;;9.17;;
13816;SDS011;6979;52.116;5.286;2023-12-14T09:26:45;9.77;;;8.77;;
13816;SDS011;6979;52.116;5.286;2023-12-14T09:29:11;9.63;;;8.73;;
13816;SDS011;6979;52.116;5.286;2023-12-14T09:31:41;9.33;;;8.43;;
13816;SDS011;6979;52.116;5.286;2023-12-14T09:34:10;8.90;;;8.10;;
13816;SDS011;6979;52.116;5.286;2023-12-14T09:36:39;8.67;;;7.87;;
13816;SDS011;6979;52.116;5.286;2023-12-14T09:39:06;8.23;;;7.53;;
13816;SDS011;6979;52.116;5.286;2023-12-14T09:41:38;9.00;;;8.20;;
13816;SDS011;6979;52.116;5.286;2023-12-14T09:44:05;8.43;;;7.67;;
13816;SDS011;6979;52.116;5.286;2023-12-14T09:46:33;7.70;;;7.00;;
13816;SDS011;6979;52.116;5.286;2023-12-14T09:49:02;8.30;;;7.60;;
13816;SDS011;6979;52.116;5.286;2023-12-14T09:51:31;9.40;;;8.40;;
13816;SDS011;6979;52.116;5.286;2023-12-14T09:53:58;11.27;;;10.07;;
13816;SDS011;6979;52.116;5.286;2023-12-14T09:56:25;10.47;;;9.30;;
13816;SDS011;6979;52.116;5.286;2023-12-14T09:58:52;11.47;;;10.27;;
13816;SDS011;6979;52.116;5.286;2023-12-14T10:01:22;11.37;;;10.13;;
13816;SDS011;6979;52.116;5.286;2023-12-14T10:03:50;9.97;;;8.97;;
13816;SDS011;6979;52.116;5.286;2023-12-14T10:06:17;9.97;;;8.97;;
13816;SDS011;6979;52.116;5.286;2023-12-14T10:11:22;10.53;;;9.53;;
13816;SDS011;6979;52.116;5.286;2023-12-14T10:13:48;12.63;;;11.33;;
13816;SDS011;6979;52.116;5.286;2023-12-14T10:16:26;12.30;;;11.03;;
13816;SDS011;6979;52.116;5.286;2023-12-14T10:18:55;12.60;;;11.40;;
13816;SDS011;6979;52.116;5.286;2023-12-14T10:21:22;12.17;;;10.97;;
13816;SDS011;6979;52.116;5.286;2023-12-14T10:23:48;11.47;;;10.37;;
13816;SDS011;6979;52.116;5.286;2023-12-14T10:26:17;12.63;;;11.43;;
13816;SDS011;6979;52.116;5.286;2023-12-14T10:28:44;11.97;;;10.87;;
13816;SDS011;6979;52.116;5.286;2023-12-14T10:31:10;11.33;;;10.43;;
13816;SDS011;6979;52.116;5.286;2023-12-14T10:33:38;10.17;;;9.27;;
13816;SDS011;6979;52.116;5.286;2023-12-14T10:36:05;10.00;;;9.00;;
13816;SDS011;6979;52.116;5.286;2023-12-14T10:38:34;9.50;;;8.57;;
13816;SDS011;6979;52.116;5.286;2023-12-14T10:41:06;9.57;;;8.87;;
13816;SDS011;6979;52.116;5.286;2023-12-14T10:43:36;8.40;;;7.70;;
13816;SDS011;6979;52.116;5.286;2023-12-14T10:46:06;9.03;;;8.33;;
13816;SDS011;6979;52.116;5.286;2023-12-14T10:48:35;8.20;;;7.53;;
13816;SDS011;6979;52.116;5.286;2023-12-14T10:51:03;9.30;;;8.60;;
13816;SDS011;6979;52.116;5.286;2023-12-14T10:53:31;9.80;;;9.00;;
13816;SDS011;6979;52.116;5.286;2023-12-14T10:55:58;10.67;;;9.77;;
13816;SDS011;6979;52.116;5.286;2023-12-14T10:58:30;11.70;;;10.60;;
13816;SDS011;6979;52.116;5.286;2023-12-14T11:01:14;10.17;;;9.27;;
13816;SDS011;6979;52.116;5.286;2023-12-14T11:03:42;11.10;;;10.27;;
13816;SDS011;6979;52.116;5.286;2023-12-14T11:06:29;11.87;;;10.80;;
13816;SDS011;6979;52.116;5.286;2023-12-14T11:09:04;10.10;;;9.13;;
13816;SDS011;6979;52.116;5.286;2023-12-14T11:11:38;10.47;;;9.57;;
13816;SDS011;6979;52.116;5.286;2023-12-14T11:14:11;10.70;;;9.73;;
13816;SDS011;6979;52.116;5.286;2023-12-14T11:16:38;11.03;;;10.13;;
13816;SDS011;6979;52.116;5.286;2023-12-14T11:19:24;11.63;;;10.43;;
13816;SDS011;6979;52.116;5.286;2023-12-14T11:24:50;10.63;;;9.73;;
13816;SDS011;6979;52.116;5.286;2023-12-14T11:27:20;10.53;;;9.63;;
13816;SDS011;6979;52.116;5.286;2023-12-14T11:29:53;9.77;;;8.87;;
13816;SDS011;6979;52.116;5.286;2023-12-14T11:32:20;10.67;;;9.77;;
13816;SDS011;6979;52.116;5.286;2023-12-14T11:34:50;10.47;;;9.57;;
13816;SDS011;6979;52.116;5.286;2023-12-14T11:37:17;11.40;;;10.50;;
13816;SDS011;6979;52.116;5.286;2023-12-14T11:39:45;12.40;;;11.40;;
13816;SDS011;6979;52.116;5.286;2023-12-14T11:42:18;11.23;;;10.33;;
13816;SDS011;6979;52.116;5.286;2023-12-14T11:44:45;10.70;;;9.70;;
13816;SDS011;6979;52.116;5.286;2023-12-14T11:47:14;9.60;;;8.87;;
13816;SDS011;6979;52.116;5.286;2023-12-14T11:49:41;9.67;;;8.87;;
13816;SDS011;6979;52.116;5.286;2023-12-14T11:52:08;8.80;;;8.10;;
13816;SDS011;6979;52.116;5.286;2023-12-14T11:54:36;7.27;;;6.77;;
13816;SDS011;6979;52.116;5.286;2023-12-14T11:57:03;6.37;;;5.87;;
13816;SDS011;6979;52.116;5.286;2023-12-14T11:59:34;7.00;;;6.30;;
13816;SDS011;6979;52.116;5.286;2023-12-14T12:02:01;6.40;;;5.93;;
13816;SDS011;6979;52.116;5.286;2023-12-14T12:04:30;6.23;;;5.83;;
13816;SDS011;6979;52.116;5.286;2023-12-14T12:07:00;7.47;;;6.87;;
13816;SDS011;6979;52.116;5.286;2023-12-14T12:09:32;8.57;;;7.83;;
13816;SDS011;6979;52.116;5.286;2023-12-14T12:12:04;7.77;;;7.17;;
13816;SDS011;6979;52.116;5.286;2023-12-14T12:14:32;7.70;;;7.10;;
13816;SDS011;6979;52.116;5.286;2023-12-14T12:17:01;6.87;;;6.23;;
13816;SDS011;6979;52.116;5.286;2023-12-14T12:19:32;7.33;;;6.63;;
13816;SDS011;6979;52.116;5.286;2023-12-14T12:21:59;6.27;;;5.87;;
13816;SDS011;6979;52.116;5.286;2023-12-14T12:24:26;6.20;;;5.70;;
13816;SDS011;6979;52.116;5.286;2023-12-14T12:26:53;5.30;;;4.90;;
13816;SDS011;6979;52.116;5.286;2023-12-14T12:29:20;5.50;;;5.00;;
13816;SDS011;6979;52.116;5.286;2023-12-14T12:31:46;5.20;;;4.80;;
13816;SDS011;6979;52.116;5.286;2023-12-14T12:34:15;5.63;;;5.13;;
13816;SDS011;6979;52.116;5.286;2023-12-14T12:36:43;7.23;;;5.10;;
13816;SDS011;6979;52.116;5.286;2023-12-14T12:39:10;5.70;;;5.20;;
13816;SDS011;6979;52.116;5.286;2023-12-14T12:41:37;5.90;;;5.43;;
13816;SDS011;6979;52.116;5.286;2023-12-14T12:44:04;5.80;;;5.30;;
13816;SDS011;6979;52.116;5.286;2023-12-14T12:46:33;6.50;;;6.00;;
13816;SDS011;6979;52.116;5.286;2023-12-14T12:49:00;5.87;;;5.37;;
13816;SDS011;6979;52.116;5.286;2023-12-14T12:51:27;6.57;;;5.97;;
13816;SDS011;6979;52.116;5.286;2023-12-14T12:53:56;7.10;;;6.60;;
13816;SDS011;6979;52.116;5.286;2023-12-14T12:56:25;6.73;;;6.23;;
13816;SDS011;6979;52.116;5.286;2023-12-14T12:58:51;6.60;;;6.10;;
13816;SDS011;6979;52.116;5.286;2023-12-14T13:01:19;6.47;;;5.87;;
13816;SDS011;6979;52.116;5.286;2023-12-14T13:03:47;7.63;;;6.73;;
13816;SDS011;6979;52.116;5.286;2023-12-14T13:06:17;7.17;;;6.53;;
13816;SDS011;6979;52.116;5.286;2023-12-14T13:08:44;7.30;;;6.70;;
13816;SDS011;6979;52.116;5.286;2023-12-14T13:11:13;8.13;;;7.10;;
13816;SDS011;6979;52.116;5.286;2023-12-14T13:13:40;8.23;;;7.40;;
13816;SDS011;6979;52.116;5.286;2023-12-14T13:16:08;7.17;;;6.57;;
13816;SDS011;6979;52.116;5.286;2023-12-14T13:18:36;7.07;;;6.37;;
13816;SDS011;6979;52.116;5.286;2023-12-14T13:21:03;8.23;;;7.53;;
13816;SDS011;6979;52.116;5.286;2023-12-14T13:23:30;7.60;;;6.80;;
13816;SDS011;6979;52.116;5.286;2023-12-14T13:25:58;7.30;;;6.60;;
13816;SDS011;6979;52.116;5.286;2023-12-14T13:28:26;7.57;;;6.87;;
13816;SDS011;6979;52.116;5.286;2023-12-14T13:30:53;7.87;;;7.17;;
13816;SDS011;6979;52.116;5.286;2023-12-14T13:33:22;8.30;;;7.20;;
13816;SDS011;6979;52.116;5.286;2023-12-14T13:35:49;7.60;;;6.90;;
13816;SDS011;6979;52.116;5.286;2023-12-14T13:38:16;8.30;;;7.53;;
13816;SDS011;6979;52.116;5.286;2023-12-14T13:40:43;8.00;;;7.30;;
13816;SDS011;6979;52.116;5.286;2023-12-14T13:43:10;7.90;;;7.23;;
13816;SDS011;6979;52.116;5.286;2023-12-14T13:45:41;9.37;;;8.57;;
13816;SDS011;6979;52.116;5.286;2023-12-14T13:48:08;9.80;;;8.90;;
13816;SDS011;6979;52.116;5.286;2023-12-14T13:50:37;10.10;;;9.10;;
13816;SDS011;6979;52.116;5.286;2023-12-14T13:53:04;10.33;;;9.33;;
13816;SDS011;6979;52.116;5.286;2023-12-14T13:55:30;10.83;;;9.83;;
13816;SDS011;6979;52.116;5.286;2023-12-14T13:57:57;10.20;;;9.20;;
13816;SDS011;6979;52.116;5.286;2023-12-14T14:00:42;10.87;;;9.87;;
13816;SDS011;6979;52.116;5.286;2023-12-14T14:03:12;11.27;;;10.37;;
13816;SDS011;6979;52.116;5.286;2023-12-14T14:05:39;10.90;;;9.90;;
13816;SDS011;6979;52.116;5.286;2023-12-14T14:08:09;11.80;;;10.70;;
13816;SDS011;6979;52.116;5.286;2023-12-14T14:10:36;11.77;;;10.70;;
13816;SDS011;6979;52.116;5.286;2023-12-14T14:13:03;11.63;;;10.50;;
13816;SDS011;6979;52.116;5.286;2023-12-14T14:15:29;12.00;;;10.70;;
13816;SDS011;6979;52.116;5.286;2023-12-14T14:17:58;8.90;;;8.00;;
13816;SDS011;6979;52.116;5.286;2023-12-14T14:20:25;13.00;;;11.73;;
13816;SDS011;6979;52.116;5.286;2023-12-14T14:22:52;10.97;;;9.87;;
13816;SDS011;6979;52.116;5.286;2023-12-14T14:25:19;13.03;;;10.33;;
13816;SDS011;6979;52.116;5.286;2023-12-14T14:27:46;11.33;;;10.23;;
13816;SDS011;6979;52.116;5.286;2023-12-14T14:30:13;11.70;;;10.50;;
13816;SDS011;6979;52.116;5.286;2023-12-14T14:32:41;12.63;;;11.43;;
13816;SDS011;6979;52.116;5.286;2023-12-14T14:35:09;11.60;;;10.40;;
13816;SDS011;6979;52.116;5.286;2023-12-14T14:37:36;11.23;;;10.23;;
13816;SDS011;6979;52.116;5.286;2023-12-14T14:40:03;11.23;;;10.03;;
13816;SDS011;6979;52.116;5.286;2023-12-14T14:42:32;11.20;;;10.10;;
13816;SDS011;6979;52.116;5.286;2023-12-14T14:44:59;9.90;;;8.90;;
13816;SDS011;6979;52.116;5.286;2023-12-14T14:47:26;11.63;;;10.53;;
13816;SDS011;6979;52.116;5.286;2023-12-14T14:49:53;12.53;;;11.23;;
13816;SDS011;6979;52.116;5.286;2023-12-14T14:52:23;12.53;;;11.33;;
13816;SDS011;6979;52.116;5.286;2023-12-14T14:54:50;10.80;;;9.77;;
13816;SDS011;6979;52.116;5.286;2023-12-14T14:57:18;11.30;;;10.20;;